Kansas City, Missouri
Traffic Map
Current Weather Conditions
Kansas City, Missouri
Clear
Clear
16°
Feels Like: 9°
Wind Chill: Ceiling: Unl
Heat Index: 16° Visibility: 10mi
Dew Point: Wind: 5mph
Humidity: 71% Direction: 50° (NE)
Pressure: 30.66in Gusts: 0mph
Raw Report DataKMKC 091254Z 05004KT 10SM CLR M09/M13 A3066 RMK AO2 SLP392 T10891133
Traffic Incident Summary
Active as of:
Severity:
Category:
InformationThere was an issue retrieving the traffic information for this location. Please try a different location or try again shortly.
Advertisements
Track Severe Weather on mobile